Latest Weather Observations for Parndana

IDS60801

Issued at 5:35 pm CST Saturday 2 August 2014 (issued every 30 minutes, with the page automatically refreshed every 10 minutes)

About weather observations | Map of weather stations | Latest weather observations for SA | Other Formats
Station Details ID: 022843 Name: PARNDANA CFS AWS Lat: -35.79 Lon: 137.25 Height: 165.0 m
Data from the previous 72 hours. | See also: Recent months at Parndana
Date/Time
CST
Temp
°C
App
Temp
°C
Dew
Point
Rel
Hum
%
Delta-T
°C
Wind Press
QNH
hPa
Press
MSL
hPa
Rain
since 9 am
mm
Dir
 
Spd
km/h
Gust
km/h
Spd
kts
Gust
kts
02/05:30pm 9.0 7.0 6.4 84 1.2 NNW 6 7 3 4 - - 0.2
02/05:00pm 9.1 7.2 6.7 85 1.1 NW 6 7 3 4 - - 0.2
02/04:30pm 9.3 6.8 6.6 83 1.3 NW 9 15 5 8 - - 0.2
02/04:00pm 10.7 8.1 6.1 73 2.2 NW 9 13 5 7 - - 0.2
02/03:30pm 9.9 6.0 5.3 73 2.1 NW 15 22 8 12 - - 0.2
02/03:00pm 10.9 7.2 4.4 64 2.9 N 13 19 7 10 - - 0.2
02/02:30pm 11.9 7.6 3.4 56 3.8 N 15 20 8 11 - - 0.2
02/02:00pm 11.1 6.8 3.2 58 3.5 N 15 22 8 12 - - 0.2
02/01:30pm 11.8 7.7 4.1 59 3.5 NNW 15 22 8 12 - - 0.2
02/01:00pm 11.0 8.5 4.7 65 2.9 NW 7 13 4 7 - - 0.2
02/12:30pm 11.7 8.0 4.7 62 3.2 NNW 13 19 7 10 - - 0.2
02/12:00pm 9.7 5.4 5.3 74 2.0 NW 17 20 9 11 - - 0.0
02/11:30am 10.6 6.8 5.6 71 2.3 NNW 15 22 8 12 - - 0.0
02/11:00am 11.4 8.3 5.5 67 2.7 N 11 15 6 8 - - 0.0
02/10:30am 10.9 7.8 5.4 69 2.5 N 11 17 6 9 - - 0.0
02/10:00am 9.8 7.7 5.8 76 1.9 N 6 6 3 3 - - 0.0
02/09:30am 10.1 7.9 5.1 71 2.3 N 6 6 3 3 - - 0.0
02/09:00am 7.7 6.6 5.2 84 1.1 CALM 0 0 0 0 - - 3.0
02/08:30am 6.2 4.2 4.4 88 0.8 NW 4 6 2 3 - - 3.0
02/08:00am 4.7 2.0 2.9 88 0.7 NW 6 6 3 3 - - 3.0
02/07:30am 3.0 0.9 1.8 92 0.5 WNW 2 4 1 2 - - 3.0
02/07:00am 3.5 0.7 2.3 92 0.5 NW 6 6 3 3 - - 3.0
02/06:30am 4.8 2.5 2.8 87 0.8 W 4 6 2 3 - - 3.0
02/06:00am 3.2 0.4 2.0 92 0.5 W 6 6 3 3 - - 3.0
02/05:30am 2.8 -0.6 1.6 92 0.5 W 9 11 5 6 - - 3.0
02/05:00am 3.3 0.5 2.0 91 0.5 W 6 7 3 4 - - 3.0
02/04:30am 3.6 0.6 2.1 90 0.6 W 7 9 4 5 - - 3.0
02/04:00am 3.7 0.7 2.1 89 0.6 WNW 7 9 4 5 - - 3.0
02/03:30am 3.8 0.8 2.2 89 0.6 W 7 9 4 5 - - 3.0
02/03:00am 3.3 0.3 2.0 91 0.5 WNW 7 9 4 5 - - 3.0
02/02:30am 3.0 -0.4 1.7 91 0.5 WNW 9 9 5 5 - - 3.0
02/02:00am 2.9 -0.2 1.1 88 0.7 WNW 7 7 4 4 - - 3.0
02/01:30am 3.5 0.4 1.5 87 0.8 WNW 7 9 4 5 - - 3.0
02/01:00am 4.4 1.1 2.3 86 0.8 SW 9 11 5 6 - - 3.0
02/12:30am 3.5 -0.7 1.5 87 0.8 WSW 13 17 7 9 - - 3.0
02/12:00am 5.6 2.9 2.6 81 1.2 WNW 6 7 3 4 - - 3.0
 
Date/Time
CST
Temp
°C
App
Temp
°C
Dew
Point
Rel
Hum
%
Delta-T
°C
Wind Press
QNH
hPa
Press
MSL
hPa
Rain
since 9 am
mm
Dir
 
Spd
km/h
Gust
km/h
Spd
kts
Gust
kts
01/11:30pm 3.2 -0.2 1.7 90 0.6 W 9 13 5 7 - - 3.0
01/11:00pm 3.9 1.2 2.7 92 0.5 S 6 13 3 7 - - 3.0
01/10:30pm 3.5 -0.3 2.0 90 0.6 WNW 11 15 6 8 - - 3.0
01/10:00pm 5.5 3.3 3.3 86 0.9 E 4 7 2 4 - - 3.0
01/09:30pm 6.1 2.3 3.8 85 1.0 SE 13 17 7 9 - - 3.0
01/09:00pm 5.6 2.4 2.8 82 1.2 SSW 9 15 5 8 - - 3.0
01/08:30pm 5.2 2.0 2.9 85 1.0 W 9 9 5 5 - - 3.0
01/08:00pm 5.5 2.5 2.2 79 1.3 W 7 9 4 5 - - 3.0
01/07:30pm 5.4 2.1 2.6 82 1.2 W 9 11 5 6 - - 3.0
01/07:00pm 6.3 2.6 2.2 75 1.7 SW 11 13 6 7 - - 3.0
01/06:30pm 6.4 2.6 1.5 71 2.0 SW 11 15 6 8 - - 3.0
01/06:00pm 6.3 2.4 1.2 70 2.0 SW 11 15 6 8 - - 3.0
01/05:30pm 7.4 3.2 1.9 68 2.3 SSW 13 19 7 10 - - 3.0
01/05:00pm 8.4 3.5 2.0 64 2.7 SSW 17 22 9 12 - - 3.0
01/04:30pm 8.8 4.0 2.8 66 2.6 SSW 17 22 9 12 - - 3.0
01/04:00pm 10.0 3.4 1.9 57 3.4 SSW 26 35 14 19 - - 3.0
01/03:30pm 9.7 2.1 3.0 63 2.9 SSW 32 44 17 24 - - 3.0
01/03:00pm 8.8 3.3 4.2 73 2.0 SSW 22 32 12 17 - - 3.0
01/02:44pm 9.8 2.7 3.3 64 2.8 SSW 30 57 16 31 - - 2.6
01/02:30pm 10.6 3.8 3.2 60 3.3 SSW 28 41 15 22 - - 2.6
01/02:00pm 11.1 3.6 3.6 60 3.3 SSW 32 44 17 24 - - 2.6
01/01:41pm 10.5 3.4 3.8 63 3.0 SSW 30 48 16 26 - - 2.6
01/01:30pm 10.7 3.3 4.2 64 2.9 SSW 32 43 17 23 - - 2.6
01/01:14pm 10.3 3.1 3.1 61 3.1 SSW 30 52 16 28 - - 2.6
01/01:00pm 10.3 1.7 2.7 59 3.3 SSW 37 50 20 27 - - 2.6
01/12:30pm 8.6 2.3 5.5 81 1.4 SW 28 39 15 21 - - 2.6
01/12:00pm 9.1 2.2 4.7 74 2.0 SW 30 39 16 21 - - 2.6
01/11:30am 10.2 2.0 4.8 69 2.5 SSW 37 52 20 28 - - 2.6
01/11:09am 9.8 2.5 5.4 74 2.0 SSW 33 54 18 29 - - 2.6
01/11:00am 8.8 1.6 4.8 76 1.8 SSW 32 46 17 25 - - 2.6
01/10:30am 8.6 2.3 5.9 83 1.2 SSW 28 41 15 22 - - 2.6
01/10:00am 5.5 -3.0 3.0 84 1.0 SSW 37 67 20 36 - - 1.4
01/09:55am 8.9 2.1 4.9 76 1.8 SSW 30 50 16 27 - - 0.6
01/09:30am 7.3 0.0 4.6 83 1.2 SSW 32 46 17 25 - - 0.6
01/09:00am 5.4 -1.0 3.4 87 0.8 SSW 26 39 14 21 - - 9.2
01/08:30am 7.2 -0.4 3.8 79 1.5 SW 33 50 18 27 - - 8.2
01/08:02am 7.6 0.0 3.1 73 1.9 SW 32 61 17 33 - - 8.2
01/08:00am 7.6 0.8 2.9 72 2.0 SW 28 41 15 22 - - 8.0
01/07:30am 6.5 -0.8 2.6 76 1.6 SW 30 48 16 26 - - 8.0
01/07:00am 5.7 -1.5 3.0 83 1.1 SW 30 48 16 26 - - 8.0
01/06:55am 5.7 -4.9 2.9 82 1.2 SW 48 69 26 37 - - 8.0
01/06:52am 5.7 -7.2 1.8 76 1.6 SW 59 69 32 37 - - 7.8
01/06:50am 7.2 -1.1 2.1 70 2.1 SW 35 72 19 39 - - 7.2
01/06:30am 7.2 -0.1 2.5 72 2.0 SW 30 44 16 24 - - 6.6
01/06:00am 5.8 -0.7 2.8 81 1.2 SW 26 35 14 19 - - 6.6
01/05:37am 6.3 -0.5 2.9 79 1.4 SW 28 48 15 26 - - 6.2
01/05:30am 6.4 -0.4 3.2 80 1.4 WSW 28 43 15 23 - - 5.8
01/05:01am 7.0 -1.7 1.7 69 2.2 SW 37 67 20 36 - - 5.2
01/05:00am 7.4 -1.0 1.7 67 2.3 WSW 35 50 19 27 - - 5.2
01/04:30am 7.0 -0.9 2.5 73 1.9 WSW 33 52 18 28 - - 5.0
01/04:01am 6.9 -0.9 2.6 74 1.8 WSW 33 54 18 29 - - 5.0
01/04:00am 6.9 -0.9 2.6 74 1.8 WSW 33 50 18 27 - - 5.0
01/03:30am 6.8 -1.8 2.7 75 1.7 WSW 37 59 20 32 - - 5.0
01/03:09am 6.7 -0.9 3.1 78 1.5 WSW 32 54 17 29 - - 5.0
01/03:00am 6.3 -0.1 3.3 81 1.3 WSW 26 37 14 20 - - 5.0
01/02:30am 5.8 -0.6 3.1 83 1.1 W 26 37 14 20 - - 5.0
01/02:12am 5.8 -3.1 3.3 84 1.1 W 39 61 21 33 - - 5.0
01/02:00am 5.7 -0.7 3.0 83 1.1 W 26 39 14 21 - - 4.8
01/01:30am 6.1 -1.0 3.6 84 1.1 W 30 41 16 22 - - 4.6
01/01:07am 6.5 -1.1 2.8 77 1.5 W 32 52 17 28 - - 4.4
01/01:00am 6.1 -0.3 3.1 81 1.3 W 26 39 14 21 - - 4.4
01/12:30am 6.6 -1.4 3.6 81 1.3 W 35 63 19 34 - - 4.4
01/12:27am 6.5 -0.6 3.5 81 1.3 W 30 54 16 29 - - 4.4
01/12:00am 5.8 -0.3 3.0 82 1.2 WSW 24 33 13 18 - - 4.4
 
Date/Time
CST
Temp
°C
App
Temp
°C
Dew
Point
Rel
Hum
%
Delta-T
°C
Wind Press
QNH
hPa
Press
MSL
hPa
Rain
since 9 am
mm
Dir
 
Spd
km/h
Gust
km/h
Spd
kts
Gust
kts
31/11:30pm 6.1 0.1 3.1 81 1.3 W 24 33 13 18 - - 4.2
31/11:00pm 5.3 0.0 3.0 85 1.0 W 20 28 11 15 - - 4.2
31/10:30pm 6.1 0.1 3.1 81 1.3 W 24 37 13 20 - - 4.0
31/10:00pm 6.0 -0.4 3.0 81 1.3 WSW 26 35 14 19 - - 4.0
31/09:37pm 6.8 -0.1 2.5 74 1.8 W 28 52 15 28 - - 4.0
31/09:30pm 6.9 0.6 1.8 70 2.1 W 24 32 13 17 - - 4.0
31/09:00pm 6.5 -0.4 2.6 76 1.6 W 28 37 15 20 - - 4.0
31/08:30pm 6.8 -1.0 2.9 76 1.6 W 33 48 18 26 - - 4.0
31/08:26pm 6.9 0.1 3.2 77 1.6 W 28 46 15 25 - - 4.0
31/08:00pm 6.0 1.3 3.2 82 1.2 WNW 17 24 9 13 - - 4.0
31/07:30pm 6.3 1.7 3.6 83 1.2 W 17 20 9 11 - - 4.0
31/07:00pm 6.3 0.6 3.1 80 1.3 W 22 32 12 17 - - 4.0
31/06:30pm 6.5 0.8 3.1 79 1.4 W 22 28 12 15 - - 4.0
31/06:00pm 6.9 1.7 3.3 78 1.5 W 20 26 11 14 - - 3.8
31/05:30pm 7.2 0.7 2.5 72 2.0 W 26 32 14 17 - - 3.8
31/05:06pm 7.7 1.0 3.6 75 1.8 WSW 28 48 15 26 - - 3.8
31/05:00pm 7.2 1.0 4.3 82 1.3 W 26 43 14 23 - - 3.8
31/04:30pm 7.9 1.9 3.2 72 2.0 W 24 33 13 18 - - 3.6
31/04:06pm 7.7 0.2 3.4 74 1.8 W 32 57 17 31 - - 3.6
31/04:00pm 7.6 0.1 3.6 76 1.7 W 32 44 17 24 - - 3.6
31/03:30pm 6.6 -2.2 3.4 80 1.4 WSW 39 59 21 32 - - 3.6
31/03:00pm 7.8 -0.6 5.8 87 0.9 WSW 39 59 21 32 - - 3.2
31/02:47pm 8.0 1.5 6.6 91 0.7 WSW 30 52 16 28 - - 3.2
31/02:30pm 8.4 2.4 7.0 91 0.7 WSW 28 44 15 24 - - 3.0
31/02:15pm 8.5 1.4 6.6 88 0.9 WSW 33 61 18 33 - - 2.8
31/02:00pm 8.9 2.6 7.4 90 0.7 W 30 41 16 22 - - 2.4
31/01:30pm 8.5 1.5 6.8 89 0.8 W 33 46 18 25 - - 2.2
31/01:12pm 8.9 1.9 7.0 88 0.9 WSW 33 56 18 30 - - 2.0
31/01:00pm 8.9 1.9 7.0 88 0.9 W 33 44 18 24 - - 1.8
31/12:40pm 8.4 -0.2 6.7 89 0.8 WSW 41 59 22 32 - - 1.6
31/12:30pm 9.2 0.2 6.6 84 1.2 WSW 43 57 23 31 - - 1.4
31/12:28pm 9.9 2.6 7.2 83 1.3 WNW 35 78 19 42 - - 1.4
31/12:00pm 9.9 2.2 7.3 84 1.2 W 37 57 20 31 - - 1.2
31/11:30am 8.7 1.8 7.2 90 0.7 W 33 54 18 29 - - 1.2
31/11:00am 9.2 2.4 7.8 91 0.7 WSW 33 54 18 29 - - 0.8
31/10:32am 9.6 2.0 7.7 88 0.9 WSW 37 56 20 30 - - 0.4
31/10:30am 9.6 1.7 7.7 88 0.9 WSW 39 56 21 30 - - 0.4
31/10:07am 9.4 2.3 8.0 91 0.7 WSW 35 54 19 29 - - 0.4
31/10:00am 9.2 1.7 7.8 91 0.7 WSW 37 52 20 28 - - 0.4
31/09:30am 9.7 2.0 8.5 92 0.6 WSW 39 61 21 33 - - 0.4
31/09:06am 10.9 3.5 9.7 92 0.6 WSW 39 59 21 32 - - 0.0
31/09:00am 10.8 2.3 9.1 89 0.9 W 44 59 24 32 - - 3.0
31/08:57am 12.5 3.9 10.4 87 1.1 W 46 56 25 30 - - 2.0
31/08:30am 13.1 4.4 11.2 88 1.0 WNW 48 72 26 39 - - 0.2
31/08:05am 13.0 3.8 10.9 87 1.1 NW 50 69 27 37 - - 0.2
31/08:00am 13.2 3.2 10.9 86 1.2 NW 54 69 29 37 - - 0.2
31/07:30am 13.9 4.5 10.1 78 2.0 NW 50 78 27 42 - - 0.0
31/07:00am 13.8 4.4 10.0 78 2.0 NW 50 76 27 41 - - 0.0
31/06:30am 13.6 4.8 9.6 77 2.1 NW 46 69 25 37 - - 0.0
31/06:00am 13.7 4.0 9.2 74 2.3 NW 50 80 27 43 - - 0.0
31/05:30am 13.5 5.0 9.2 75 2.2 NW 44 65 24 35 - - 0.0
31/05:02am 13.5 5.2 9.4 76 2.1 WNW 43 63 23 34 - - 0.0
31/05:00am 13.5 4.7 9.4 76 2.1 WNW 46 63 25 34 - - 0.0
31/04:30am 13.6 3.9 9.1 74 2.3 WNW 50 76 27 41 - - 0.0
31/04:00am 13.5 3.7 8.8 73 2.4 WNW 50 74 27 40 - - 0.0
31/03:30am 13.8 4.2 9.6 76 2.2 NW 50 69 27 37 - - 0.0
31/03:00am 13.6 6.7 10.2 80 1.8 NW 37 61 20 33 - - 0.0
31/02:30am 13.5 6.0 11.0 85 1.3 NW 41 63 22 34 - - 0.0
31/02:22am 13.6 6.2 11.1 85 1.3 NW 41 63 22 34 - - 0.0
31/02:00am 13.6 6.2 11.3 86 1.2 NW 41 59 22 32 - - 0.0
31/01:47am 13.6 6.3 11.5 87 1.1 NW 41 65 22 35 - - 0.0
31/01:30am 13.5 7.0 11.6 88 1.0 NW 37 52 20 28 - - 0.0
31/01:06am 13.6 6.2 11.1 85 1.3 NW 41 61 22 33 - - 0.0
31/01:00am 13.6 6.2 11.3 86 1.2 NW 41 56 22 30 - - 0.0
31/12:44am 13.6 7.0 11.5 87 1.1 NW 37 59 20 32 - - 0.0
31/12:30am 13.6 7.0 11.5 87 1.1 NW 37 50 20 27 - - 0.0
31/12:03am 13.6 6.2 11.3 86 1.2 NW 41 61 22 33 - - 0.0
31/12:00am 13.7 6.0 11.4 86 1.2 NW 43 61 23 33 - - 0.0
 
Date/Time
CST
Temp
°C
App
Temp
°C
Dew
Point
Rel
Hum
%
Delta-T
°C
Wind Press
QNH
hPa
Press
MSL
hPa
Rain
since 9 am
mm
Dir
 
Spd
km/h
Gust
km/h
Spd
kts
Gust
kts
30/11:50pm 13.7 7.1 11.2 85 1.3 NW 37 70 20 38 - - 0.0
30/11:30pm 13.7 6.2 10.9 83 1.5 NW 41 56 22 30 - - 0.0
30/11:00pm 13.9 6.4 10.9 82 1.6 NW 41 61 22 33 - - 0.0
30/10:41pm 13.6 7.2 10.8 83 1.5 NW 35 54 19 29 - - 0.0
30/10:30pm 13.7 6.9 10.7 82 1.6 NW 37 50 20 27 - - 0.0
30/10:00pm 13.4 7.0 10.8 84 1.4 NW 35 57 19 31 - - 0.0
30/09:35pm 13.7 7.0 11.0 84 1.4 NW 37 56 20 30 - - 0.0
30/09:30pm 13.8 7.1 11.1 84 1.4 NW 37 48 20 26 - - 0.0
30/09:00pm 13.9 8.0 11.1 83 1.5 NW 33 56 18 30 - - 0.0
30/08:55pm 13.9 8.1 10.9 82 1.6 NW 32 50 17 27 - - 0.0
30/08:30pm 13.8 7.9 11.1 84 1.4 NW 33 50 18 27 - - 0.0
30/08:09pm 14.0 7.8 11.5 85 1.3 NW 35 56 19 30 - - 0.0
30/08:00pm 14.0 8.3 11.7 86 1.2 NW 33 48 18 26 - - 0.0
30/07:30pm 14.1 8.4 11.8 86 1.2 NW 33 48 18 26 - - 0.0
30/07:14pm 14.0 8.5 11.9 87 1.1 NW 32 52 17 28 - - 0.0
30/07:00pm 14.0 9.0 12.2 89 1.0 NW 30 41 16 22 - - 0.0
30/06:30pm 14.1 9.8 12.1 88 1.1 NW 26 41 14 22 - - 0.0
30/06:00pm 14.1 9.9 12.5 90 0.9 NW 26 39 14 21 - - 0.0

Other Formats:

Comma delimited format used in spreadsheet applications
http://www.bom.gov.au/fwo/IDS60801/IDS60801.94807.axf

JavaScript Object Notation format (JSON) in row-major order
http://www.bom.gov.au/fwo/IDS60801/IDS60801.94807.json